Time;durP1;ratioP1;P1;durP2;ratioP2;P2;SDS_P1;SDS_P2;PMS_P1;PMS_P2;Temp;Humidity;BMP_temperature;BMP_pressure;BME280_temperature;BME280_humidity;BME280_pressure;Samples;Min_cycle;Max_cycle;Signal;HPM_P1;HPM_P2
2022/04/18 00:03:36;;;;;;;6.97;4.03;;;;;;;5.96;47.89;100448.22;10426424;28;20249;-60
2022/04/18 00:08:38;;;;;;;7.15;4.18;;;;;;;5.86;47.96;100446.81;10428296;28;20060;-60
2022/04/18 00:13:40;;;;;;;6.25;3.58;;;;;;;5.68;48.37;100452.56;10424474;28;20395;-60
2022/04/18 00:18:42;;;;;;;6.80;3.50;;;;;;;5.57;48.98;100448.56;10426891;28;20140;-60
2022/04/18 00:23:44;;;;;;;5.20;2.90;;;;;;;5.52;48.99;100449.63;10423303;28;20072;-60
2022/04/18 00:28:46;;;;;;;4.45;3.15;;;;;;;5.32;49.21;100432.09;10426022;28;20448;-60
2022/04/18 00:33:48;;;;;;;5.45;3.10;;;;;;;4.98;50.26;100430.53;10427178;28;20512;-60
2022/04/18 00:38:50;;;;;;;6.20;3.13;;;;;;;4.82;50.73;100431.88;10424026;28;20127;-60
2022/04/18 00:43:52;;;;;;;6.30;3.10;;;;;;;4.81;50.91;100428.44;10424566;28;20458;-59
2022/04/18 00:48:53;;;;;;;6.65;2.92;;;;;;;4.64;51.54;100418.53;10423456;28;20091;-60
2022/04/18 00:53:57;;;;;;;5.13;2.90;;;;;;;4.58;51.65;100413.53;10423219;28;20045;-60
2022/04/18 00:58:59;;;;;;;6.00;3.10;;;;;;;4.56;51.52;100412.72;10425457;28;20149;-60
2022/04/18 01:04:01;;;;;;;5.10;3.03;;;;;;;4.56;51.91;100406.69;10420241;28;20100;-60
2022/04/18 01:09:02;;;;;;;6.63;3.05;;;;;;;4.55;51.87;100399.81;10426703;28;20045;-60
2022/04/18 01:14:04;;;;;;;5.97;2.90;;;;;;;4.49;52.09;100397.41;10424716;28;20455;-60
2022/04/18 01:19:07;;;;;;;4.75;2.72;;;;;;;4.40;52.43;100382.97;10424362;28;20099;-60
2022/04/18 01:29:28;;;;;;;5.18;2.60;;;;;;;4.17;53.04;100374.94;10422564;28;20088;-60
2022/04/18 01:34:30;;;;;;;4.03;2.67;;;;;;;4.19;53.03;100375.75;10421632;28;20060;-60
2022/04/18 01:39:32;;;;;;;6.80;3.33;;;;;;;4.10;53.28;100370.84;10421528;28;20102;-60
2022/04/18 01:44:34;;;;;;;5.85;3.10;;;;;;;4.19;53.29;100362.00;10421619;28;20103;-59
2022/04/18 01:49:35;;;;;;;7.85;3.47;;;;;;;4.18;52.93;100361.13;10420313;28;20504;-60
2022/04/18 01:54:40;;;;;;;4.57;2.75;;;;;;;4.01;53.25;100359.84;10405664;28;20500;-60
2022/04/18 01:59:44;;;;;;;5.97;2.92;;;;;;;3.94;53.56;100356.59;10420337;28;20589;-60
2022/04/18 02:04:46;;;;;;;5.47;3.05;;;;;;;3.95;53.57;100350.53;10430089;28;20060;-59
2022/04/18 02:09:48;;;;;;;6.07;2.85;;;;;;;3.96;53.53;100353.97;10428396;28;20053;-61
2022/04/18 02:14:50;;;;;;;6.38;2.97;;;;;;;3.69;53.76;100353.75;10428132;28;20488;-62
2022/04/18 02:19:52;;;;;;;5.15;3.00;;;;;;;3.70;54.10;100349.44;10430714;28;20501;-62
2022/04/18 02:25:00;;;;;;;7.68;3.10;;;;;;;3.69;54.31;100348.59;10428865;28;20561;-62
2022/04/18 02:30:06;;;;;;;6.07;2.70;;;;;;;3.68;54.07;100354.63;10428306;28;20453;-62
2022/04/18 02:35:08;;;;;;;6.03;3.20;;;;;;;3.66;53.76;100345.25;10427705;28;20052;-62
2022/04/18 02:40:10;;;;;;;4.40;2.70;;;;;;;3.57;54.54;100341.13;10427956;28;20045;-62
2022/04/18 02:45:14;;;;;;;5.53;3.15;;;;;;;3.55;54.66;100352.41;10425153;28;20509;-62
2022/04/18 02:50:16;;;;;;;8.10;2.92;;;;;;;3.44;54.85;100354.38;10429622;28;20056;-62
2022/04/18 02:55:18;;;;;;;5.05;2.90;;;;;;;3.35;55.07;100342.56;10427922;28;20061;-62
2022/04/18 03:00:20;;;;;;;6.05;2.85;;;;;;;3.40;55.14;100332.94;10429713;28;20118;-62
2022/04/18 03:05:22;;;;;;;4.80;3.00;;;;;;;3.31;55.11;100332.31;10424787;28;20567;-62
2022/04/18 03:15:44;;;;;;;7.55;3.17;;;;;;;3.20;55.14;100318.78;10416645;28;20558;-61
2022/04/18 03:20:46;;;;;;;4.55;2.80;;;;;;;3.11;55.52;100309.50;10416563;28;20052;-62
2022/04/18 03:25:48;;;;;;;6.32;2.63;;;;;;;3.15;55.10;100311.16;10430224;28;20057;-62
2022/04/18 03:30:49;;;;;;;5.28;2.65;;;;;;;3.03;55.26;100317.44;10428739;28;20094;-62
2022/04/18 03:41:11;;;;;;;5.50;2.58;;;;;;;2.98;55.51;100302.94;10427533;28;20114;-61
2022/04/18 03:46:13;;;;;;;4.90;2.63;;;;;;;2.80;55.94;100309.38;10424064;28;20728;-62
2022/04/18 03:51:15;;;;;;;6.15;2.80;;;;;;;2.80;55.82;100300.78;10430234;28;20049;-63
2022/04/18 03:56:17;;;;;;;4.80;2.90;;;;;;;2.72;55.92;100308.72;10430974;28;20088;-62
2022/04/18 04:01:18;;;;;;;9.02;4.22;;;;;;;2.35;56.34;100304.34;10430319;28;20235;-62
2022/04/18 04:06:21;;;;;;;7.00;3.30;;;;;;;2.35;56.53;100304.34;10428655;28;20084;-61
2022/04/18 04:11:22;;;;;;;5.97;3.50;;;;;;;2.33;56.84;100304.38;10424778;28;20128;-62
2022/04/18 04:16:24;;;;;;;4.53;2.80;;;;;;;2.31;56.85;100295.81;10426420;28;20485;-62
2022/04/18 04:21:26;;;;;;;5.60;2.83;;;;;;;2.40;56.53;100295.59;10428405;28;20114;-62
2022/04/18 04:26:28;;;;;;;6.32;3.10;;;;;;;2.14;56.44;100298.72;10427742;28;20095;-62
2022/04/18 04:31:30;;;;;;;5.05;3.10;;;;;;;2.06;56.81;100304.91;10425815;28;20539;-62
2022/04/18 04:36:32;;;;;;;4.40;2.80;;;;;;;2.08;56.94;100298.00;10422678;28;20118;-62
2022/04/18 04:41:34;;;;;;;4.70;2.90;;;;;;;2.30;56.71;100299.25;10422242;28;20120;-62
2022/04/18 04:46:36;;;;;;;5.03;2.95;;;;;;;2.41;56.72;100299.91;10424241;28;20592;-62
2022/04/18 04:51:39;;;;;;;6.40;3.13;;;;;;;2.39;56.36;100308.56;10425429;28;20144;-62
2022/04/18 04:56:42;;;;;;;5.30;2.80;;;;;;;2.33;56.58;100312.13;10409785;28;20068;-62
2022/04/18 05:01:44;;;;;;;5.28;2.78;;;;;;;2.49;56.53;100313.50;10407645;28;20443;-62
2022/04/18 05:06:46;;;;;;;6.78;3.08;;;;;;;2.73;56.62;100315.56;10428475;28;20489;-62
2022/04/18 05:11:48;;;;;;;6.03;3.03;;;;;;;2.95;56.17;100303.00;10425118;28;20497;-62
2022/04/18 05:16:50;;;;;;;6.10;3.50;;;;;;;3.09;55.97;100300.13;10424361;28;20129;-62
2022/04/18 05:21:52;;;;;;;8.85;3.03;;;;;;;3.16;56.00;100301.66;10421770;28;20067;-62
2022/04/18 05:26:54;;;;;;;6.90;3.28;;;;;;;3.17;55.74;100296.47;10423303;28;20471;-62
2022/04/18 05:31:55;;;;;;;7.57;3.22;;;;;;;3.32;55.41;100297.81;10426048;28;20103;-62
2022/04/18 05:36:57;;;;;;;10.18;3.28;;;;;;;3.56;55.03;100299.78;10422073;28;20338;-62
2022/04/18 05:41:59;;;;;;;4.40;2.90;;;;;;;3.78;54.62;100306.13;10422383;28;20044;-62
2022/04/18 05:47:01;;;;;;;6.45;3.17;;;;;;;3.91;54.51;100312.69;10423281;28;20056;-62
2022/04/18 05:52:03;;;;;;;6.05;3.30;;;;;;;3.99;54.51;100315.91;10420030;28;20437;-62
2022/04/18 05:57:08;;;;;;;4.72;3.00;;;;;;;3.93;54.48;100316.09;10423105;28;20053;-62
2022/04/18 06:02:10;;;;;;;5.97;2.72;;;;;;;4.09;54.26;100316.53;10424443;28;20045;-62
2022/04/18 06:07:11;;;;;;;5.28;2.78;;;;;;;4.31;53.89;100312.47;10423660;28;20578;-62
2022/04/18 06:12:13;;;;;;;5.60;3.10;;;;;;;4.51;53.43;100308.41;10423458;28;20045;-62
2022/04/18 06:17:15;;;;;;;5.63;3.08;;;;;;;4.76;53.03;100312.88;10403743;28;20049;-62
2022/04/18 06:22:22;;;;;;;7.85;3.40;;;;;;;4.98;52.40;100311.31;10423558;28;20135;-62
2022/04/18 06:27:24;;;;;;;4.95;3.13;;;;;;;5.16;51.82;100308.16;10423593;28;20052;-62
2022/04/18 06:32:25;;;;;;;5.65;3.13;;;;;;;5.38;51.25;100298.78;10423738;28;20060;-62
2022/04/18 06:37:28;;;;;;;6.20;3.42;;;;;;;5.66;49.63;100304.72;10423327;28;20063;-62
2022/04/18 06:42:34;;;;;;;4.97;3.17;;;;;;;5.90;49.05;100306.47;10419237;28;20447;-62
2022/04/18 06:47:39;;;;;;;7.43;3.10;;;;;;;6.11;48.87;100304.88;10421272;28;20052;-62
2022/04/18 06:52:49;;;;;;;5.63;3.22;;;;;;;6.24;48.95;100312.19;10421088;28;20321;-62
2022/04/18 06:57:51;;;;;;;5.77;3.10;;;;;;;6.40;48.04;100312.50;10427078;28;20068;-62
2022/04/18 07:02:53;;;;;;;7.00;3.08;;;;;;;6.60;48.16;100316.97;10430801;28;20049;-62
2022/04/18 07:07:54;;;;;;;4.97;2.90;;;;;;;6.83;47.39;100315.22;10429686;28;20460;-62
2022/04/18 07:12:56;;;;;;;5.45;3.30;;;;;;;6.97;46.82;100327.66;10427800;28;20493;-62
2022/04/18 07:17:59;;;;;;;5.75;3.13;;;;;;;7.20;46.72;100309.41;10429218;28;20351;-62
2022/04/18 07:23:02;;;;;;;4.82;3.13;;;;;;;7.34;46.32;100314.06;10422148;28;20516;-62
2022/04/18 07:28:04;;;;;;;8.05;3.53;;;;;;;7.57;46.10;100314.78;10428011;28;20053;-62
2022/04/18 07:33:06;;;;;;;6.63;3.10;;;;;;;7.71;45.40;100306.44;10425945;28;20049;-62
2022/04/18 07:43:34;;;;;;;6.07;2.78;;;;;;;9.90;41.66;100293.53;10417956;28;20048;-62
2022/04/18 07:48:37;;;;;;;7.75;2.97;;;;;;;10.78;40.25;100285.28;10424745;28;20293;-62
2022/04/18 07:53:41;;;;;;;7.65;3.35;;;;;;;11.73;38.78;100287.69;10425567;28;20199;-61
2022/04/18 07:58:46;;;;;;;7.30;2.80;;;;;;;12.59;37.31;100292.06;10428919;28;20049;-61
2022/04/18 08:03:51;;;;;;;5.32;2.90;;;;;;;13.06;35.31;100274.16;10422483;28;20049;-61
2022/04/18 08:08:55;;;;;;;5.28;2.58;;;;;;;13.48;34.52;100270.53;10426375;28;20139;-61
2022/04/18 08:13:57;;;;;;;5.72;2.92;;;;;;;13.66;33.80;100270.16;10423532;28;20550;-61
2022/04/18 08:18:59;;;;;;;6.68;2.85;;;;;;;14.05;33.09;100265.75;10422912;28;20092;-61
2022/04/18 08:24:01;;;;;;;5.10;2.60;;;;;;;14.27;31.88;100261.53;10407513;28;20559;-61
2022/04/18 08:29:03;;;;;;;5.18;2.88;;;;;;;14.09;31.37;100260.19;10426020;28;20059;-61
2022/04/18 08:34:07;;;;;;;5.05;2.70;;;;;;;14.75;31.04;100259.91;10421184;28;20056;-61
2022/04/18 08:39:09;;;;;;;4.15;2.65;;;;;;;14.91;29.11;100257.84;10409495;28;20049;-61
2022/04/18 08:44:12;;;;;;;5.35;2.80;;;;;;;15.29;29.21;100247.13;10419967;28;20397;-61
2022/04/18 08:54:41;;;;;;;6.25;2.80;;;;;;;14.71;28.64;100247.91;10406466;28;20507;-61
2022/04/18 08:59:45;;;;;;;6.53;3.05;;;;;;;15.30;28.86;100243.56;10408685;28;20069;-61
2022/04/18 09:04:49;;;;;;;7.68;3.00;;;;;;;15.68;27.93;100248.59;10426296;28;20511;-62
2022/04/18 09:09:58;;;;;;;7.72;3.03;;;;;;;15.87;27.62;100236.56;10426930;28;20323;-62
2022/04/18 09:15:00;;;;;;;4.53;2.80;;;;;;;16.21;27.99;100232.97;10425187;28;20064;-61
2022/04/18 09:20:06;;;;;;;6.80;3.03;;;;;;;16.53;27.54;100222.53;10421694;28;20131;-61
2022/04/18 09:30:35;;;;;;;5.68;3.00;;;;;;;16.16;27.34;100207.91;6831007;26;20068;-81
2022/04/18 09:35:38;;;;;;;5.80;3.13;;;;;;;16.39;27.36;100206.09;10370331;28;20070;-81
2022/04/18 09:40:43;;;;;;;5.18;3.15;;;;;;;16.80;26.73;100196.56;10360875;28;20073;-81
2022/04/18 09:45:51;;;;;;;6.22;3.05;;;;;;;16.58;26.81;100196.63;10371639;28;20132;-81
2022/04/18 09:51:43;;;;;;;6.03;2.92;;;;;;;16.69;25.76;100186.00;10369075;28;20057;-81
2022/04/18 09:57:06;;;;;;;4.88;3.17;;;;;;;16.48;26.07;100184.28;10366479;28;20053;-81
2022/04/18 10:02:13;;;;;;;5.10;3.10;;;;;;;16.89;24.40;100165.91;10366721;28;20651;-81
2022/04/18 10:07:15;;;;;;;6.10;3.30;;;;;;;16.75;24.35;100171.50;10370245;28;20045;-81
2022/04/18 10:12:17;;;;;;;5.13;3.08;;;;;;;16.59;25.32;100158.69;10372453;28;20054;-81
2022/04/18 10:17:21;;;;;;;5.05;3.00;;;;;;;16.81;24.46;100153.31;10350504;28;20755;-81
2022/04/18 10:22:55;;;;;;;6.65;3.10;;;;;;;16.85;24.27;100148.66;10369152;28;20057;-81
2022/04/18 10:28:01;;;;;;;6.30;3.28;;;;;;;16.42;25.03;100143.34;10369881;28;20057;-81
2022/04/18 10:33:04;;;;;;;5.00;2.72;;;;;;;16.94;26.16;100130.22;10369505;28;20058;-81
2022/04/18 10:38:10;;;;;;;4.60;2.90;;;;;;;16.84;24.88;100128.47;10372319;28;20046;-80
2022/04/18 10:43:16;;;;;;;4.13;2.67;;;;;;;17.07;25.79;100118.63;10367889;28;20178;-81
2022/04/18 10:48:34;;;;;;;6.90;2.88;;;;;;;16.53;24.52;100116.13;10361581;28;20061;-80
2022/04/18 10:53:36;;;;;;;4.70;2.80;;;;;;;16.37;25.21;100107.69;10356572;28;20053;-81
2022/04/18 10:58:41;;;;;;;5.45;3.08;;;;;;;16.56;25.93;100100.84;10344236;28;21540;-81
2022/04/18 11:03:57;;;;;;;4.43;2.58;;;;;;;16.60;25.67;100096.16;10361934;28;20053;-80
2022/04/18 11:09:08;;;;;;;5.60;2.97;;;;;;;16.24;25.51;100090.22;10368253;28;20050;-80
2022/04/18 11:14:14;;;;;;;;;;;;;;;15.86;27.37;100092.44;10360646;28;20116;-80
2022/04/18 11:19:20;;;;;;;5.05;2.80;;;;;;;16.09;25.41;100086.19;10358026;28;19955;-80
2022/04/18 11:24:56;;;;;;;5.05;2.63;;;;;;;16.22;25.75;100072.84;10361360;28;20635;-80
2022/04/18 11:30:01;;;;;;;8.02;2.63;;;;;;;16.24;25.65;100068.28;10357904;28;20085;-80
2022/04/18 11:35:07;;;;;;;6.95;2.45;;;;;;;16.46;26.40;100062.13;10346183;28;20670;-81
2022/04/18 11:40:14;;;;;;;4.57;2.33;;;;;;;16.59;24.21;100052.25;10338543;28;20049;-80
2022/04/18 11:45:26;;;;;;;3.80;2.60;;;;;;;16.22;24.93;100055.19;10375077;28;20061;-81
2022/04/18 11:50:28;;;;;;;5.75;2.42;;;;;;;16.22;25.34;100044.63;10373309;28;20054;-81
2022/04/18 11:55:31;;;;;;;4.97;2.40;;;;;;;16.13;24.50;100037.47;10370585;28;20507;-80
2022/04/18 12:11:22;;;;;;;3.80;2.03;;;;;;;16.91;25.14;100022.19;10357040;28;20115;-81
2022/04/18 12:16:26;;;;;;;4.53;2.10;;;;;;;16.85;23.75;100027.13;10373085;28;20058;-81
2022/04/18 12:21:35;;;;;;;6.80;2.25;;;;;;;17.00;24.75;100017.91;10370182;28;20050;-80
2022/04/18 12:26:39;;;;;;;4.50;2.00;;;;;;;17.02;24.17;100002.75;10356384;28;20053;-81
2022/04/18 12:31:42;;;;;;;4.10;1.90;;;;;;;17.20;25.56;100000.34;10355631;28;20065;-81
2022/04/18 12:36:55;;;;;;;3.83;1.98;;;;;;;17.19;25.06;99986.31;10372089;28;20077;-80
2022/04/18 12:42:04;;;;;;;5.93;2.10;;;;;;;17.50;25.21;99982.72;10356561;28;20154;-80
2022/04/18 12:47:17;;;;;;;3.70;1.73;;;;;;;17.40;23.73;99981.00;10353477;28;20063;-81
2022/04/18 12:52:25;;;;;;;3.35;1.90;;;;;;;17.60;23.96;99973.00;10371590;28;20128;-81
2022/04/18 12:57:32;;;;;;;3.45;1.80;;;;;;;17.63;23.91;99964.78;10366101;28;20148;-81
2022/04/18 13:02:39;;;;;;;4.57;2.00;;;;;;;17.83;23.59;99950.59;10369272;28;20088;-81
2022/04/18 13:07:42;;;;;;;3.25;1.88;;;;;;;17.98;23.48;99950.22;10373819;28;20045;-81
2022/04/18 13:12:44;;;;;;;4.47;1.80;;;;;;;17.91;22.81;99935.88;10375511;28;20057;-81
2022/04/18 13:18:09;;;;;;;3.00;1.70;;;;;;;17.72;21.79;99934.03;10369990;28;20132;-81
2022/04/18 13:23:13;;;;;;;3.38;1.60;;;;;;;17.91;24.25;99930.59;10349293;28;20149;-81
2022/04/18 13:28:16;;;;;;;3.47;1.80;;;;;;;17.97;23.07;99912.34;10370707;28;20144;-81
2022/04/18 13:33:19;;;;;;;3.42;1.70;;;;;;;17.97;22.27;99911.50;10349664;28;20446;-81
2022/04/18 13:38:48;;;;;;;3.30;1.67;;;;;;;18.19;22.82;99904.16;10371262;28;20053;-81
2022/04/18 13:43:51;;;;;;;4.93;1.80;;;;;;;18.17;23.87;99892.84;10348389;28;20057;-80
2022/04/18 13:48:53;;;;;;;5.22;1.88;;;;;;;18.33;23.83;99897.56;10367431;28;20065;-81
2022/04/18 13:53:58;;;;;;;3.50;1.70;;;;;;;18.31;22.83;99883.66;10349402;28;20105;-81
2022/04/18 13:59:02;;;;;;;3.47;1.80;;;;;;;18.34;22.92;99886.03;10359277;28;20041;-81
2022/04/18 14:04:05;;;;;;;4.13;1.55;;;;;;;18.52;22.83;99881.66;10363314;28;20501;-82
2022/04/18 14:09:08;;;;;;;2.92;1.40;;;;;;;18.50;23.18;99873.03;10368400;28;20061;-82
2022/04/18 14:14:10;;;;;;;3.40;1.52;;;;;;;18.27;23.01;99871.66;10362334;28;20080;-81
2022/04/18 14:24:32;;;;;;;2.85;1.40;;;;;;;18.21;21.76;99870.44;10370508;28;20484;-81
2022/04/18 14:29:34;;;;;;;2.45;1.48;;;;;;;17.97;21.72;99861.22;10358317;28;20423;-81
2022/04/18 14:34:37;;;;;;;2.95;1.50;;;;;;;18.11;21.69;99844.91;10363491;28;20053;-81
2022/04/18 14:39:38;;;;;;;4.93;1.70;;;;;;;18.13;22.83;99843.81;10365254;28;20053;-81
2022/04/18 14:44:40;;;;;;;2.33;1.38;;;;;;;18.25;21.63;99840.06;10363964;28;21064;-81
2022/04/18 14:49:42;;;;;;;2.38;1.50;;;;;;;18.25;22.33;99831.25;10366506;28;20507;-81
2022/04/18 14:54:44;;;;;;;2.22;1.30;;;;;;;18.42;21.40;99833.19;10340938;28;20053;-81
2022/04/18 14:59:49;;;;;;;5.00;1.50;;;;;;;18.58;22.15;99831.56;10357361;28;20630;-81
2022/04/18 15:04:51;;;;;;;2.80;1.40;;;;;;;18.67;21.60;99821.94;10363823;28;20508;-81
2022/04/18 15:09:53;;;;;;;3.65;1.45;;;;;;;18.57;21.90;99821.13;10367203;28;20049;-80
2022/04/18 15:14:55;;;;;;;2.58;1.35;;;;;;;18.44;23.85;99823.28;10366464;28;20049;-81
2022/04/18 15:19:57;;;;;;;2.58;1.30;;;;;;;18.39;22.08;99820.22;10355535;28;20056;-81
2022/04/18 15:25:00;;;;;;;5.75;1.48;;;;;;;18.41;21.83;99811.16;10373432;28;20062;-81
2022/04/18 15:35:30;;;;;;;2.13;1.20;;;;;;;18.37;23.13;99803.66;10356008;28;20053;-81
2022/04/18 15:40:34;;;;;;;4.20;1.60;;;;;;;18.30;22.49;99797.28;10354166;28;20053;-81
2022/04/18 15:45:40;;;;;;;3.03;1.40;;;;;;;18.41;22.66;99794.44;10365965;28;20053;-81
2022/04/18 15:50:44;;;;;;;5.53;1.75;;;;;;;18.21;23.47;99795.47;10338484;28;20060;-80
2022/04/18 15:55:47;;;;;;;4.40;1.60;;;;;;;18.40;22.52;99787.47;10367880;28;20057;-80
2022/04/18 16:00:49;;;;;;;2.92;1.63;;;;;;;18.36;22.36;99791.41;10363137;28;20796;-81
2022/04/18 16:05:52;;;;;;;2.78;1.50;;;;;;;18.27;22.12;99789.59;10342845;28;20054;-81
2022/04/18 16:10:54;;;;;;;2.58;1.48;;;;;;;18.20;22.18;99788.53;10363641;28;20049;-81
2022/04/18 16:15:56;;;;;;;4.18;1.50;;;;;;;18.19;22.71;99790.31;10366811;28;20061;-81
2022/04/18 16:20:58;;;;;;;3.42;1.50;;;;;;;18.06;21.25;99784.47;10359932;28;20443;-81
2022/04/18 16:26:02;;;;;;;4.15;1.42;;;;;;;18.29;21.58;99779.69;10340053;28;20046;-81
2022/04/18 16:36:24;;;;;;;2.40;1.40;;;;;;;18.14;20.52;99766.06;10370371;28;20466;-81
2022/04/18 16:46:47;;;;;;;;;;;;;;;17.88;20.33;99754.41;10373870;28;20138;-81
2022/04/18 16:51:49;;;;;;;3.58;1.70;;;;;;;18.36;21.45;99756.97;10337336;28;19944;-81
2022/04/18 16:56:51;;;;;;;4.53;1.67;;;;;;;18.72;20.43;99755.28;10359888;28;20211;-81
2022/04/18 17:01:53;;;;;;;2.80;1.40;;;;;;;18.54;20.81;99747.28;10345832;28;20471;-81
2022/04/18 17:06:55;;;;;;;2.80;1.40;;;;;;;18.32;22.05;99750.31;10368464;28;20053;-81
2022/04/18 17:11:57;;;;;;;3.38;1.60;;;;;;;18.06;21.78;99744.75;10362130;28;20053;-81
2022/04/18 17:17:00;;;;;;;3.35;1.50;;;;;;;17.84;21.67;99739.81;10369237;28;20100;-82
2022/04/18 17:22:02;;;;;;;2.80;1.33;;;;;;;17.58;23.74;99744.03;10330416;28;20220;-81
2022/04/18 17:27:04;;;;;;;2.58;1.40;;;;;;;17.48;23.13;99740.56;10364215;28;20145;-81
2022/04/18 17:32:09;;;;;;;3.00;1.55;;;;;;;17.22;23.89;99745.50;10367837;28;20060;-85
2022/04/18 17:37:12;;;;;;;3.28;1.40;;;;;;;17.08;22.75;99745.91;10350632;28;20187;-85
2022/04/18 17:42:23;;;;;;;3.00;1.30;;;;;;;16.87;22.87;99745.19;10375191;28;20064;-85
2022/04/18 17:47:25;;;;;;;2.72;1.42;;;;;;;16.67;23.21;99748.75;10356076;28;20479;-85
2022/04/18 17:52:27;;;;;;;3.60;1.60;;;;;;;16.49;23.99;99745.09;10357464;28;20053;-82
2022/04/18 17:57:30;;;;;;;3.53;1.50;;;;;;;16.36;24.16;99741.78;10334619;28;20050;-82
2022/04/18 18:02:32;;;;;;;2.92;1.50;;;;;;;16.23;25.01;99749.94;10327861;28;20066;-82
2022/04/18 18:07:35;;;;;;;3.75;1.70;;;;;;;15.99;25.57;99752.03;10329011;28;20050;-82
2022/04/18 18:12:39;;;;;;;2.90;1.58;;;;;;;15.71;26.21;99752.69;10323196;28;20104;-81
2022/04/18 18:17:42;;;;;;;3.03;1.60;;;;;;;15.34;26.61;99750.44;10325191;28;20053;-77
2022/04/18 18:22:44;;;;;;;3.00;1.50;;;;;;;15.06;27.19;99751.00;10330413;28;20147;-77
2022/04/18 18:27:48;;;;;;;3.17;1.65;;;;;;;14.84;28.20;99752.88;10316660;28;20401;-77
2022/04/18 18:32:54;;;;;;;3.60;1.90;;;;;;;14.57;29.00;99748.81;10317230;28;20267;-77
2022/04/18 18:37:56;;;;;;;4.97;1.55;;;;;;;14.34;28.66;99752.41;10326275;28;20522;-77
2022/04/18 18:43:03;;;;;;;4.47;1.60;;;;;;;14.13;29.70;99756.69;10328525;28;20064;-77
2022/04/18 18:48:13;;;;;;;3.90;1.80;;;;;;;13.89;29.85;99771.69;10323463;28;20178;-77
2022/04/18 18:53:20;;;;;;;3.33;1.70;;;;;;;13.66;30.06;99775.22;10315708;28;20775;-77
2022/04/18 18:58:23;;;;;;;4.85;2.00;;;;;;;13.47;31.24;99781.03;10321227;28;20150;-77
2022/04/18 19:03:25;;;;;;;3.30;1.98;;;;;;;13.30;32.07;99785.78;10331174;28;20050;-77
2022/04/18 19:08:27;;;;;;;3.15;2.03;;;;;;;13.07;32.40;99791.88;10339091;28;20085;-75
2022/04/18 19:13:29;;;;;;;5.28;2.33;;;;;;;12.78;32.84;99794.78;10326978;28;20154;-75
2022/04/18 19:29:13;;;;;;;4.38;2.10;;;;;;;12.29;33.90;99803.56;10325329;28;20062;-75
2022/04/18 19:34:18;;;;;;;4.03;2.10;;;;;;;12.12;34.60;99799.44;10314848;28;20054;-82
2022/04/18 19:39:21;;;;;;;6.18;2.58;;;;;;;11.94;34.91;99801.53;10325918;28;20689;-82
2022/04/18 19:44:23;;;;;;;4.07;2.42;;;;;;;11.75;35.32;99803.69;10338171;28;20480;-83
2022/04/18 19:49:28;;;;;;;3.83;2.28;;;;;;;11.60;35.92;99804.69;10325911;28;20474;-82
2022/04/18 19:54:31;;;;;;;4.53;2.30;;;;;;;11.19;36.93;99804.78;10332240;28;20057;-82
2022/04/18 19:59:33;;;;;;;4.70;2.00;;;;;;;11.19;36.68;99809.19;10340443;28;20050;-82
2022/04/18 20:04:34;;;;;;;6.55;2.40;;;;;;;11.16;37.08;99806.75;10330993;28;20415;-82
2022/04/18 20:09:37;;;;;;;4.68;2.10;;;;;;;10.98;37.39;99806.13;10339919;28;20427;-82
2022/04/18 20:14:39;;;;;;;4.22;2.25;;;;;;;10.76;38.10;99805.81;10333002;28;20057;-82
2022/04/18 20:19:41;;;;;;;5.07;2.10;;;;;;;10.62;37.97;99810.22;10335558;28;20507;-82
2022/04/18 20:24:43;;;;;;;3.33;2.00;;;;;;;10.51;38.22;99816.09;10336866;28;20054;-83
2022/04/18 20:29:47;;;;;;;4.13;1.90;;;;;;;10.45;38.65;99811.22;10326805;28;20060;-83
2022/04/18 20:34:50;;;;;;;5.80;2.05;;;;;;;10.38;39.18;99815.13;10323395;28;20058;-83
2022/04/18 20:39:52;;;;;;;4.07;2.20;;;;;;;10.31;39.21;99825.16;10331706;28;20420;-83
2022/04/18 20:44:54;;;;;;;5.05;2.33;;;;;;;10.20;39.79;99814.50;10325654;28;20412;-82
2022/04/18 20:50:02;;;;;;;4.07;2.10;;;;;;;9.96;40.55;99822.94;10325426;28;20042;-83
2022/04/18 21:00:27;;;;;;;3.78;1.92;;;;;;;9.76;41.00;99812.81;10327255;28;20080;-82
2022/04/18 21:05:29;;;;;;;3.88;2.00;;;;;;;9.68;41.06;99812.44;10320492;28;20049;-83
2022/04/18 21:10:32;;;;;;;4.22;1.92;;;;;;;9.52;41.48;99818.47;10326973;28;20085;-83
2022/04/18 21:15:34;;;;;;;4.72;1.95;;;;;;;9.32;41.85;99805.72;10329956;28;20053;-82
2022/04/18 21:20:39;;;;;;;3.88;2.08;;;;;;;9.20;42.25;99803.00;10336195;28;20446;-82
2022/04/18 21:25:41;;;;;;;5.22;2.10;;;;;;;9.00;42.44;99811.91;10332412;28;20396;-82
2022/04/18 21:30:43;;;;;;;4.60;2.15;;;;;;;8.90;42.79;99810.72;10331938;28;20132;-82
2022/04/18 21:35:47;;;;;;;4.45;2.08;;;;;;;8.80;43.03;99799.97;10332398;28;20085;-82
2022/04/18 21:40:48;;;;;;;4.78;2.10;;;;;;;8.67;43.53;99800.69;10332768;28;20045;-82
2022/04/18 21:45:51;;;;;;;3.75;2.10;;;;;;;8.57;44.01;99804.72;10331479;28;20052;-82
2022/04/18 21:50:56;;;;;;;5.70;2.00;;;;;;;8.49;44.17;99815.56;10331982;28;20053;-83
2022/04/18 21:56:26;;;;;;;3.38;1.90;;;;;;;8.43;44.95;99815.03;10332537;28;20873;-82
2022/04/18 22:01:28;;;;;;;4.20;2.10;;;;;;;8.37;44.51;99808.41;10333235;28;20255;-81
2022/04/18 22:06:30;;;;;;;5.78;2.95;;;;;;;8.25;44.98;99805.59;10332713;28;20054;-82
2022/04/18 22:11:32;;;;;;;4.63;2.42;;;;;;;8.25;45.11;99802.97;10336144;28;20061;-81
2022/04/18 22:16:42;;;;;;;4.20;2.20;;;;;;;8.24;45.29;99806.53;10334801;28;20054;-81
2022/04/18 22:27:04;;;;;;;3.77;2.10;;;;;;;8.00;45.88;99803.38;10335125;28;20056;-81
2022/04/18 22:32:07;;;;;;;3.90;2.28;;;;;;;7.94;46.09;99803.69;10330364;28;20062;-81
2022/04/18 22:37:09;;;;;;;6.20;2.10;;;;;;;7.91;46.10;99799.50;10331260;28;20054;-82
2022/04/18 22:42:11;;;;;;;3.85;2.10;;;;;;;7.80;46.50;99796.59;10328616;28;20076;-82
2022/04/18 22:47:15;;;;;;;3.85;2.30;;;;;;;7.65;46.56;99791.31;10330395;28;20065;-82
2022/04/18 22:52:18;;;;;;;4.63;2.33;;;;;;;7.54;46.83;99786.63;10331225;28;20058;-81
2022/04/18 22:57:20;;;;;;;3.55;2.05;;;;;;;7.46;47.10;99790.53;10335380;28;20053;-81
2022/04/18 23:02:24;;;;;;;5.82;2.40;;;;;;;7.40;47.51;99785.63;10332104;28;20054;-82
2022/04/18 23:07:25;;;;;;;4.00;2.20;;;;;;;7.26;47.73;99782.88;10333434;28;20053;-81
2022/04/18 23:12:27;;;;;;;4.45;2.33;;;;;;;7.05;48.24;99784.72;10330967;28;20054;-82
2022/04/18 23:17:30;;;;;;;3.30;2.00;;;;;;;6.88;48.50;99782.06;10329989;28;20430;-81
2022/04/18 23:22:32;;;;;;;6.85;2.80;;;;;;;6.76;48.86;99777.44;10326784;28;20061;-81
2022/04/18 23:27:34;;;;;;;4.43;2.42;;;;;;;6.67;49.06;99778.75;10329799;28;20054;-81
2022/04/18 23:32:40;;;;;;;4.32;2.60;;;;;;;6.66;49.49;99777.03;10326762;28;20066;-81
2022/04/18 23:37:43;;;;;;;3.90;2.40;;;;;;;6.66;49.10;99777.03;10328042;28;20375;-81
2022/04/18 23:42:45;;;;;;;4.35;2.65;;;;;;;6.55;49.79;99768.06;10332882;28;20051;-81
2022/04/18 23:47:47;;;;;;;4.45;2.60;;;;;;;6.50;50.01;99765.66;10337411;28;20042;-81
2022/04/18 23:52:49;;;;;;;4.65;2.67;;;;;;;6.54;49.78;99764.63;10336988;28;20062;-81
2022/04/18 23:57:50;;;;;;;4.65;2.50;;;;;;;6.54;49.91;99761.16;10337994;28;20136;-81
